Time;durP1;ratioP1;P1;durP2;ratioP2;P2;SDS_P1;SDS_P2;PMS_P1;PMS_P2;Temp;Humidity;BMP_temperature;BMP_pressure;BME280_temperature;BME280_humidity;BME280_pressure;Samples;Min_cycle;Max_cycle;Signal;HPM_P1;HPM_P2
2022/09/25 00:02:25;;;;;;;7.18;4.50;;;;;;;;;;4975682;28;20111;-75
2022/09/25 00:04:51;;;;;;;6.68;4.75;;;;;;;;;;4979930;28;20046;-74
2022/09/25 00:07:17;;;;;;;6.68;4.40;;;;;;;;;;4976133;28;20039;-74
2022/09/25 00:09:44;;;;;;;11.02;4.55;;;;;;;;;;4976703;28;20049;-74
2022/09/25 00:12:10;;;;;;;9.13;4.75;;;;;;;;;;4988851;28;20037;-75
2022/09/25 00:14:37;;;;;;;6.88;4.15;;;;;;;;;;4980217;28;20039;-75
2022/09/25 00:17:03;;;;;;;7.50;4.55;;;;;;;;;;4987881;28;20101;-75
2022/09/25 00:22:13;;;;;;;7.05;4.30;;;;;;;;;;4977398;28;20464;-75
2022/09/25 00:24:40;;;;;;;5.43;4.38;;;;;;;;;;4988174;28;20038;-75
2022/09/25 00:27:07;;;;;;;7.65;4.70;;;;;;;;;;4976047;28;20039;-75
2022/09/25 00:29:33;;;;;;;7.40;4.45;;;;;;;;;;4979687;28;20052;-75
2022/09/25 00:31:59;;;;;;;6.85;4.10;;;;;;;;;;4983861;28;20084;-74
2022/09/25 00:34:25;;;;;;;6.93;4.35;;;;;;;;;;4978776;28;20039;-73
2022/09/25 00:36:51;;;;;;;6.78;4.50;;;;;;;;;;4981496;28;20043;-75
2022/09/25 00:39:18;;;;;;;8.85;4.78;;;;;;;;;;4987696;28;20043;-75
2022/09/25 00:41:44;;;;;;;7.78;5.05;;;;;;;;;;4975413;28;20531;-74
2022/09/25 00:44:29;;;;;;;7.45;4.53;;;;;;;;;;4979283;28;20039;-74
2022/09/25 00:46:55;;;;;;;8.35;4.65;;;;;;;;;;4974553;28;20385;-74
2022/09/25 00:49:23;;;;;;;6.97;4.97;;;;;;;;;;4978951;28;20056;-73
2022/09/25 00:51:59;;;;;;;7.40;4.68;;;;;;;;;;4976813;28;20109;-74
2022/09/25 00:54:26;;;;;;;8.38;4.80;;;;;;;;;;4979153;28;20042;-73
2022/09/25 00:56:54;;;;;;;6.47;4.18;;;;;;;;;;4975343;28;20054;-74
2022/09/25 00:59:23;;;;;;;7.60;4.93;;;;;;;;;;4976828;28;20042;-75
2022/09/25 01:01:49;;;;;;;7.80;4.68;;;;;;;;;;4977315;28;20039;-74
2022/09/25 01:04:16;;;;;;;6.82;4.63;;;;;;;;;;4970658;28;20127;-75
2022/09/25 01:06:42;;;;;;;7.38;4.57;;;;;;;;;;4984764;28;20551;-75
2022/09/25 01:09:08;;;;;;;7.70;4.78;;;;;;;;;;4987004;28;20054;-74
2022/09/25 01:11:34;;;;;;;8.10;4.65;;;;;;;;;;4988438;28;20042;-74
2022/09/25 01:14:01;;;;;;;6.90;4.35;;;;;;;;;;4983152;28;20043;-75
2022/09/25 01:16:30;;;;;;;6.97;4.45;;;;;;;;;;4984360;28;20037;-74
2022/09/25 01:19:15;;;;;;;12.82;4.85;;;;;;;;;;4973502;28;20042;-75
2022/09/25 01:21:48;;;;;;;10.30;4.95;;;;;;;;;;4985475;28;20049;-75
2022/09/25 01:24:21;;;;;;;7.05;5.03;;;;;;;;;;4974765;28;20043;-75
2022/09/25 01:26:56;;;;;;;7.30;5.00;;;;;;;;;;4987286;28;20043;-76
2022/09/25 01:29:27;;;;;;;7.55;5.35;;;;;;;;;;4958733;28;20047;-75
2022/09/25 01:32:02;;;;;;;9.07;5.13;;;;;;;;;;4978749;28;20031;-76
2022/09/25 01:34:28;;;;;;;8.38;5.20;;;;;;;;;;4974012;28;20109;-75
2022/09/25 01:37:09;;;;;;;9.45;5.25;;;;;;;;;;4979346;28;20046;-75
2022/09/25 01:39:39;;;;;;;8.60;5.32;;;;;;;;;;4991632;28;20056;-75
2022/09/25 01:42:08;;;;;;;7.82;5.07;;;;;;;;;;4979578;28;20102;-75
2022/09/25 01:44:43;;;;;;;7.38;5.22;;;;;;;;;;4981049;28;20044;-75
2022/09/25 01:47:11;;;;;;;7.38;5.18;;;;;;;;;;4974474;28;20082;-75
2022/09/25 01:49:52;;;;;;;7.63;5.00;;;;;;;;;;4982316;28;20511;-75
2022/09/25 01:52:22;;;;;;;7.43;5.20;;;;;;;;;;4959231;28;20440;-74
2022/09/25 01:54:54;;;;;;;9.73;5.82;;;;;;;;;;4975167;28;20041;-75
2022/09/25 01:57:25;;;;;;;10.93;5.50;;;;;;;;;;4974315;28;20054;-75
2022/09/25 02:00:01;;;;;;;11.95;5.60;;;;;;;;;;4974339;28;20126;-75
2022/09/25 02:02:32;;;;;;;8.60;5.68;;;;;;;;;;4979811;28;20030;-75
2022/09/25 02:05:00;;;;;;;7.95;5.63;;;;;;;;;;4987349;28;20031;-75
2022/09/25 02:07:36;;;;;;;11.95;6.28;;;;;;;;;;4978809;28;20081;-75
2022/09/25 02:10:04;;;;;;;9.23;5.78;;;;;;;;;;4975235;28;20551;-75
2022/09/25 02:12:33;;;;;;;10.07;5.75;;;;;;;;;;4972203;28;20112;-75
2022/09/25 02:15:08;;;;;;;7.45;5.50;;;;;;;;;;4981104;28;20121;-76
2022/09/25 02:20:32;;;;;;;9.27;5.53;;;;;;;;;;4982200;28;20057;-75
2022/09/25 02:23:08;;;;;;;9.20;5.90;;;;;;;;;;4978974;28;20038;-76
2022/09/25 02:25:37;;;;;;;7.78;5.70;;;;;;;;;;4972992;28;20062;-75
2022/09/25 02:28:03;;;;;;;13.05;6.65;;;;;;;;;;4976978;28;20098;-75
2022/09/25 02:30:29;;;;;;;11.52;6.78;;;;;;;;;;4975864;28;20400;-74
2022/09/25 02:32:56;;;;;;;12.18;6.63;;;;;;;;;;4983315;28;20037;-75
2022/09/25 02:35:23;;;;;;;11.30;7.57;;;;;;;;;;4979310;28;20551;-74
2022/09/25 02:37:49;;;;;;;11.68;7.55;;;;;;;;;;4961469;28;20393;-74
2022/09/25 02:40:16;;;;;;;17.02;9.50;;;;;;;;;;4978371;28;20435;-74
2022/09/25 02:42:42;;;;;;;11.75;7.97;;;;;;;;;;4976734;28;20070;-74
2022/09/25 02:45:14;;;;;;;10.70;6.88;;;;;;;;;;4978635;28;20481;-75
2022/09/25 02:47:57;;;;;;;9.55;6.90;;;;;;;;;;4976558;28;20055;-75
2022/09/25 02:50:29;;;;;;;10.45;6.65;;;;;;;;;;4979702;28;20396;-75
2022/09/25 02:53:01;;;;;;;11.55;6.88;;;;;;;;;;4981652;28;20444;-75
2022/09/25 02:55:33;;;;;;;10.40;6.22;;;;;;;;;;4991077;28;20038;-75
2022/09/25 02:58:03;;;;;;;10.50;6.45;;;;;;;;;;4976279;28;20038;-75
2022/09/25 03:00:29;;;;;;;8.38;6.45;;;;;;;;;;4981564;28;20035;-75
2022/09/25 03:03:02;;;;;;;11.40;6.75;;;;;;;;;;4981511;28;20551;-75
2022/09/25 03:05:28;;;;;;;;;;;;;;;;;;4977500;28;20041;-75
2022/09/25 03:10:40;;;;;;;10.07;5.90;;;;;;;;;;4993525;28;20088;-75
2022/09/25 03:13:13;;;;;;;10.20;5.57;;;;;;;;;;4966446;28;20035;-74
2022/09/25 03:15:41;;;;;;;9.43;6.70;;;;;;;;;;4982116;28;20038;-75
2022/09/25 03:18:07;;;;;;;10.18;6.57;;;;;;;;;;4976428;28;20031;-75
2022/09/25 03:20:33;;;;;;;10.52;6.90;;;;;;;;;;4979177;28;20058;-75
2022/09/25 03:22:59;;;;;;;9.98;6.80;;;;;;;;;;4988532;28;20038;-75
2022/09/25 03:25:25;;;;;;;11.20;6.40;;;;;;;;;;4977618;28;20039;-75
2022/09/25 03:27:51;;;;;;;10.63;6.70;;;;;;;;;;4978047;28;20109;-73
2022/09/25 03:30:17;;;;;;;10.93;6.50;;;;;;;;;;4984060;28;20064;-74
2022/09/25 03:32:43;;;;;;;9.38;6.95;;;;;;;;;;4988779;28;20034;-74
2022/09/25 03:35:09;;;;;;;10.35;6.57;;;;;;;;;;4980752;28;20400;-74
2022/09/25 03:37:36;;;;;;;9.25;6.20;;;;;;;;;;4980116;28;20070;-75
2022/09/25 03:40:02;;;;;;;10.57;6.38;;;;;;;;;;4978603;28;20034;-74
2022/09/25 03:42:28;;;;;;;11.13;6.43;;;;;;;;;;4978285;28;20039;-75
2022/09/25 03:44:54;;;;;;;11.25;6.32;;;;;;;;;;4983091;28;20041;-75
2022/09/25 03:47:20;;;;;;;10.68;6.50;;;;;;;;;;4978112;28;20070;-75
2022/09/25 03:49:46;;;;;;;8.90;6.15;;;;;;;;;;4977524;28;20051;-75
2022/09/25 03:52:13;;;;;;;11.13;6.30;;;;;;;;;;4967084;28;20026;-75
2022/09/25 03:54:39;;;;;;;8.27;5.63;;;;;;;;;;4976704;28;20039;-75
2022/09/25 03:57:06;;;;;;;8.60;6.15;;;;;;;;;;4975158;28;20061;-75
2022/09/25 03:59:32;;;;;;;8.73;6.13;;;;;;;;;;4977337;28;20027;-75
2022/09/25 04:01:58;;;;;;;10.07;6.18;;;;;;;;;;4983800;28;20518;-75
2022/09/25 04:04:24;;;;;;;8.68;6.05;;;;;;;;;;4978352;28;20027;-75
2022/09/25 04:06:50;;;;;;;7.90;6.00;;;;;;;;;;4989854;28;20120;-75
2022/09/25 04:09:16;;;;;;;11.95;6.20;;;;;;;;;;4986545;28;20105;-75
2022/09/25 04:11:42;;;;;;;12.18;6.35;;;;;;;;;;4980913;28;20081;-75
2022/09/25 04:14:09;;;;;;;7.68;5.68;;;;;;;;;;4982987;28;20034;-75
2022/09/25 04:16:35;;;;;;;12.23;5.47;;;;;;;;;;4987740;28;20100;-75
2022/09/25 04:19:01;;;;;;;7.90;5.22;;;;;;;;;;4977817;28;20034;-75
2022/09/25 04:21:27;;;;;;;10.82;5.28;;;;;;;;;;4986724;28;20109;-74
2022/09/25 04:26:38;;;;;;;7.15;5.22;;;;;;;;;;4976599;28;20098;-75
2022/09/25 04:29:04;;;;;;;8.43;4.65;;;;;;;;;;4987612;28;20051;-75
2022/09/25 04:31:31;;;;;;;6.82;5.00;;;;;;;;;;4976614;28;20042;-75
2022/09/25 04:33:57;;;;;;;8.82;5.85;;;;;;;;;;4981117;28;20450;-75
2022/09/25 04:36:23;;;;;;;6.90;5.07;;;;;;;;;;4987280;28;20042;-73
2022/09/25 04:38:49;;;;;;;9.77;5.03;;;;;;;;;;4986027;28;20039;-73
2022/09/25 04:41:18;;;;;;;7.93;5.30;;;;;;;;;;4979833;28;20030;-73
2022/09/25 04:43:44;;;;;;;6.75;4.90;;;;;;;;;;4978234;28;20042;-75
2022/09/25 04:46:11;;;;;;;8.23;5.47;;;;;;;;;;4986239;28;20041;-73
2022/09/25 04:48:38;;;;;;;8.27;5.30;;;;;;;;;;4987922;28;20154;-74
2022/09/25 04:51:04;;;;;;;8.88;4.95;;;;;;;;;;4983728;28;20023;-75
2022/09/25 04:53:33;;;;;;;8.57;4.95;;;;;;;;;;4986653;28;20042;-74
2022/09/25 04:56:04;;;;;;;7.95;5.20;;;;;;;;;;4989522;28;20539;-75
2022/09/25 04:58:30;;;;;;;9.02;5.35;;;;;;;;;;4985172;28;20042;-75
2022/09/25 05:01:00;;;;;;;9.95;5.35;;;;;;;;;;4983520;28;20491;-75
2022/09/25 05:03:26;;;;;;;7.95;5.03;;;;;;;;;;4987206;28;20038;-74
2022/09/25 05:05:53;;;;;;;9.23;5.22;;;;;;;;;;4993342;28;20053;-74
2022/09/25 05:08:19;;;;;;;10.90;5.40;;;;;;;;;;4981332;28;20519;-75
2022/09/25 05:10:45;;;;;;;9.80;6.13;;;;;;;;;;4982657;28;20057;-75
2022/09/25 05:13:12;;;;;;;10.95;5.10;;;;;;;;;;4981809;28;20061;-74
2022/09/25 05:15:38;;;;;;;20.33;5.60;;;;;;;;;;4982295;28;20085;-74
2022/09/25 05:18:06;;;;;;;20.77;6.10;;;;;;;;;;4985634;28;20034;-76
2022/09/25 05:20:32;;;;;;;10.77;6.90;;;;;;;;;;4988460;28;20034;-75
2022/09/25 05:23:03;;;;;;;13.25;8.38;;;;;;;;;;4979375;28;20031;-76
2022/09/25 05:25:29;;;;;;;22.40;11.18;;;;;;;;;;4971908;28;20030;-78
2022/09/25 05:27:57;;;;;;;22.27;13.23;;;;;;;;;;4980872;28;20042;-77
2022/09/25 05:30:24;;;;;;;18.55;13.10;;;;;;;;;;4985824;28;20042;-72
2022/09/25 05:32:50;;;;;;;19.92;12.85;;;;;;;;;;4986823;28;20121;-74
2022/09/25 05:35:17;;;;;;;21.33;12.65;;;;;;;;;;4980507;28;20042;-72
2022/09/25 05:37:43;;;;;;;18.95;12.20;;;;;;;;;;4980299;28;20077;-74
2022/09/25 05:40:10;;;;;;;16.85;11.23;;;;;;;;;;4985918;28;20073;-75
2022/09/25 05:42:36;;;;;;;16.45;11.25;;;;;;;;;;4980318;28;20052;-73
2022/09/25 05:45:02;;;;;;;18.45;9.82;;;;;;;;;;4991348;28;20041;-72
2022/09/25 05:47:28;;;;;;;12.25;7.28;;;;;;;;;;4984429;28;20511;-75
2022/09/25 05:49:54;;;;;;;11.27;6.80;;;;;;;;;;4979018;28;20168;-73
2022/09/25 05:52:20;;;;;;;10.07;7.78;;;;;;;;;;4991184;28;20030;-73
2022/09/25 05:54:46;;;;;;;12.95;6.50;;;;;;;;;;4992790;28;20047;-77
2022/09/25 05:57:12;;;;;;;16.30;7.57;;;;;;;;;;4982898;28;20042;-74
2022/09/25 05:59:38;;;;;;;8.07;5.82;;;;;;;;;;4978662;28;20042;-73
2022/09/25 06:02:04;;;;;;;10.80;5.45;;;;;;;;;;4969579;28;20042;-73
2022/09/25 06:04:30;;;;;;;9.35;5.68;;;;;;;;;;4968761;28;20027;-74
2022/09/25 06:07:01;;;;;;;8.43;5.75;;;;;;;;;;4994202;28;20022;-77
2022/09/25 06:09:29;;;;;;;17.58;6.18;;;;;;;;;;4999223;28;20042;-79
2022/09/25 06:11:55;;;;;;;9.40;5.40;;;;;;;;;;4974881;28;20034;-78
2022/09/25 06:14:21;;;;;;;10.00;5.30;;;;;;;;;;4998018;28;20121;-78
2022/09/25 06:16:51;;;;;;;13.60;8.23;;;;;;;;;;4990012;28;20106;-79
2022/09/25 06:19:20;;;;;;;24.88;16.45;;;;;;;;;;4982860;28;20045;-80
2022/09/25 06:21:47;;;;;;;20.85;13.07;;;;;;;;;;4970366;28;20530;-78
2022/09/25 06:24:13;;;;;;;25.75;17.90;;;;;;;;;;4983131;28;20034;-73
2022/09/25 06:26:39;;;;;;;22.52;14.25;;;;;;;;;;4990969;28;20090;-74
2022/09/25 06:29:06;;;;;;;19.48;12.48;;;;;;;;;;5007456;28;20030;-79
2022/09/25 06:31:33;;;;;;;12.70;6.50;;;;;;;;;;4999567;28;20511;-77
2022/09/25 06:33:59;;;;;;;9.60;5.43;;;;;;;;;;4996298;28;20041;-77
2022/09/25 06:36:25;;;;;;;7.32;5.13;;;;;;;;;;4992302;28;20094;-79
2022/09/25 06:38:54;;;;;;;11.18;5.50;;;;;;;;;;4974166;28;20125;-74
2022/09/25 06:41:21;;;;;;;10.57;5.68;;;;;;;;;;4979352;28;20392;-74
2022/09/25 06:43:50;;;;;;;17.77;6.32;;;;;;;;;;4995120;28;20472;-76
2022/09/25 06:46:18;;;;;;;9.00;5.22;;;;;;;;;;4977782;28;20047;-77
2022/09/25 06:48:50;;;;;;;11.98;6.78;;;;;;;;;;4980808;28;20097;-76
2022/09/25 06:51:17;;;;;;;11.70;7.60;;;;;;;;;;4986395;28;20035;-77
2022/09/25 06:53:43;;;;;;;9.73;6.40;;;;;;;;;;4981445;28;20038;-77
2022/09/25 06:56:15;;;;;;;12.43;7.05;;;;;;;;;;4986747;28;20069;-77
2022/09/25 06:58:41;;;;;;;13.30;6.82;;;;;;;;;;4987030;28;20117;-77
2022/09/25 07:01:09;;;;;;;11.57;5.30;;;;;;;;;;4975000;28;20067;-76
2022/09/25 07:03:43;;;;;;;8.40;5.47;;;;;;;;;;4987466;28;20039;-78
2022/09/25 07:06:10;;;;;;;9.25;5.80;;;;;;;;;;4991542;28;20083;-77
2022/09/25 07:08:37;;;;;;;9.45;6.72;;;;;;;;;;4998660;28;20475;-76
2022/09/25 07:11:07;;;;;;;6.40;5.03;;;;;;;;;;4993203;28;20062;-79
2022/09/25 07:13:34;;;;;;;7.93;6.32;;;;;;;;;;4992280;28;20037;-79
2022/09/25 07:16:03;;;;;;;8.82;6.68;;;;;;;;;;5000733;28;20122;-78
2022/09/25 07:18:30;;;;;;;12.88;6.68;;;;;;;;;;4985173;28;20030;-77
2022/09/25 07:21:01;;;;;;;10.52;5.90;;;;;;;;;;4982829;28;20041;-75
2022/09/25 07:23:27;;;;;;;7.95;5.13;;;;;;;;;;4973905;28;20042;-76
2022/09/25 07:25:54;;;;;;;9.40;5.57;;;;;;;;;;4985962;28;20129;-74
2022/09/25 07:28:20;;;;;;;10.20;6.03;;;;;;;;;;4986211;28;20399;-72
2022/09/25 07:30:48;;;;;;;9.20;6.07;;;;;;;;;;4986492;28;20056;-73
2022/09/25 07:33:15;;;;;;;8.80;4.88;;;;;;;;;;4983709;28;20050;-75
2022/09/25 07:35:41;;;;;;;7.55;4.60;;;;;;;;;;4981543;28;20050;-72
2022/09/25 07:38:07;;;;;;;8.85;6.22;;;;;;;;;;4992101;28;20068;-74
2022/09/25 07:40:34;;;;;;;7.10;4.60;;;;;;;;;;4982944;28;20035;-72
2022/09/25 07:43:03;;;;;;;6.25;4.43;;;;;;;;;;4982507;28;20523;-75
2022/09/25 07:45:30;;;;;;;8.95;5.07;;;;;;;;;;4980879;28;20042;-73
2022/09/25 07:47:56;;;;;;;8.57;5.32;;;;;;;;;;4979908;28;20073;-75
2022/09/25 07:50:23;;;;;;;6.90;5.03;;;;;;;;;;4982981;28;20169;-74
2022/09/25 07:52:49;;;;;;;10.82;5.50;;;;;;;;;;4988538;28;20034;-75
2022/09/25 07:55:15;;;;;;;8.40;5.40;;;;;;;;;;4985239;28;20043;-72
2022/09/25 07:57:42;;;;;;;6.30;4.40;;;;;;;;;;4980032;28;20041;-74
2022/09/25 08:00:09;;;;;;;10.98;4.32;;;;;;;;;;4986867;28;20539;-72
2022/09/25 08:02:35;;;;;;;6.35;4.80;;;;;;;;;;4980933;28;20054;-73
2022/09/25 08:05:01;;;;;;;6.45;4.63;;;;;;;;;;4981224;28;20022;-74
2022/09/25 08:07:28;;;;;;;9.10;4.30;;;;;;;;;;4984045;28;20030;-73
2022/09/25 08:09:54;;;;;;;6.97;4.10;;;;;;;;;;4990994;28;20089;-76
2022/09/25 08:12:24;;;;;;;7.30;4.72;;;;;;;;;;4989684;28;20424;-74
2022/09/25 08:14:53;;;;;;;9.65;5.53;;;;;;;;;;4983918;28;20122;-71
2022/09/25 08:17:21;;;;;;;12.38;6.57;;;;;;;;;;4968202;28;20041;-73
2022/09/25 08:19:47;;;;;;;9.90;4.70;;;;;;;;;;4979178;28;20038;-74
2022/09/25 08:22:13;;;;;;;11.95;4.85;;;;;;;;;;4988671;28;20034;-75
2022/09/25 08:24:39;;;;;;;16.10;8.23;;;;;;;;;;4989534;28;20034;-73
2022/09/25 08:27:06;;;;;;;13.27;4.10;;;;;;;;;;4981541;28;20104;-70
2022/09/25 08:29:32;;;;;;;8.57;4.38;;;;;;;;;;4986270;28;20125;-73
2022/09/25 08:31:58;;;;;;;8.13;4.70;;;;;;;;;;4981571;28;20117;-76
2022/09/25 08:34:24;;;;;;;14.00;4.45;;;;;;;;;;4982519;28;20031;-78
2022/09/25 08:36:50;;;;;;;9.07;4.75;;;;;;;;;;4988253;28;20062;-78
2022/09/25 08:39:17;;;;;;;8.65;4.40;;;;;;;;;;4989185;28;20046;-77
2022/09/25 08:41:46;;;;;;;9.23;6.82;;;;;;;;;;4980305;28;20038;-74
2022/09/25 08:44:12;;;;;;;9.82;5.15;;;;;;;;;;4988314;28;20078;-74
2022/09/25 08:49:46;;;;;;;6.93;4.40;;;;;;;;;;4987634;28;20134;-73
2022/09/25 08:52:16;;;;;;;9.73;4.68;;;;;;;;;;4990341;28;20030;-71
2022/09/25 08:54:42;;;;;;;9.93;4.53;;;;;;;;;;4989486;28;20392;-71
2022/09/25 08:57:08;;;;;;;11.40;4.70;;;;;;;;;;4989906;28;20030;-72
2022/09/25 08:59:37;;;;;;;10.43;5.18;;;;;;;;;;4979698;28;20081;-70
2022/09/25 09:02:09;;;;;;;42.92;7.93;;;;;;;;;;4962447;28;20055;-73
2022/09/25 09:04:37;;;;;;;11.93;4.72;;;;;;;;;;4982319;28;20096;-74
2022/09/25 09:07:08;;;;;;;8.98;4.15;;;;;;;;;;4984556;28;20034;-77
2022/09/25 09:09:37;;;;;;;9.88;4.20;;;;;;;;;;4989301;28;20092;-70
2022/09/25 09:12:07;;;;;;;9.00;4.72;;;;;;;;;;4984148;28;20034;-73
2022/09/25 09:14:38;;;;;;;68.78;48.47;;;;;;;;;;4984346;28;20034;-74
2022/09/25 09:17:25;;;;;;;38.92;28.25;;;;;;;;;;4981477;28;20034;-76
2022/09/25 09:19:52;;;;;;;7.72;6.28;;;;;;;;;;4986758;28;20575;-71
2022/09/25 09:22:26;;;;;;;11.43;5.30;;;;;;;;;;4983197;28;20030;-71
2022/09/25 09:25:02;;;;;;;7.82;4.00;;;;;;;;;;4980229;28;20045;-71
2022/09/25 09:27:37;;;;;;;6.63;3.80;;;;;;;;;;4988662;28;20092;-72
2022/09/25 09:30:16;;;;;;;12.80;7.07;;;;;;;;;;4993931;28;20088;-75
2022/09/25 09:32:45;;;;;;;10.30;4.68;;;;;;;;;;4987776;28;20035;-75
2022/09/25 09:35:37;;;;;;;5.65;3.88;;;;;;;;;;4989923;28;20054;-74
2022/09/25 09:38:10;;;;;;;39.13;6.00;;;;;;;;;;4962318;28;20042;-73
2022/09/25 09:40:55;;;;;;;5.43;3.35;;;;;;;;;;4980692;28;20043;-72
2022/09/25 09:43:21;;;;;;;9.35;4.18;;;;;;;;;;4988515;28;20041;-72
2022/09/25 09:45:54;;;;;;;8.45;3.88;;;;;;;;;;4981863;28;20048;-74
2022/09/25 09:48:20;;;;;;;11.85;4.05;;;;;;;;;;4978443;28;20042;-71
2022/09/25 09:50:50;;;;;;;5.60;4.00;;;;;;;;;;4986415;28;20070;-71
2022/09/25 09:53:24;;;;;;;22.35;4.65;;;;;;;;;;4965375;28;20061;-69
2022/09/25 09:55:52;;;;;;;18.40;5.13;;;;;;;;;;4977173;28;20114;-70
2022/09/25 09:58:21;;;;;;;12.18;6.18;;;;;;;;;;4988170;28;20039;-69
2022/09/25 10:00:51;;;;;;;7.28;4.50;;;;;;;;;;4980775;28;20050;-70
2022/09/25 10:03:37;;;;;;;8.45;4.10;;;;;;;;;;4968865;28;20041;-71
2022/09/25 10:06:07;;;;;;;6.78;3.63;;;;;;;;;;4983913;28;20131;-70
2022/09/25 10:08:34;;;;;;;7.95;5.40;;;;;;;;;;4976204;28;20188;-70
2022/09/25 10:11:03;;;;;;;7.03;3.78;;;;;;;;;;4988932;28;20069;-70
2022/09/25 10:13:31;;;;;;;8.30;4.35;;;;;;;;;;4981809;28;20047;-70
2022/09/25 10:15:57;;;;;;;8.15;4.00;;;;;;;;;;4985375;28;20041;-70
2022/09/25 10:18:30;;;;;;;6.30;3.85;;;;;;;;;;4990238;28;20045;-70
2022/09/25 10:21:03;;;;;;;7.43;3.58;;;;;;;;;;4984817;28;20507;-70
2022/09/25 10:23:38;;;;;;;13.65;8.10;;;;;;;;;;4984617;28;20034;-71
2022/09/25 10:26:09;;;;;;;14.25;10.10;;;;;;;;;;4980039;28;20488;-72
2022/09/25 10:28:35;;;;;;;10.75;7.60;;;;;;;;;;4984454;28;20090;-70
2022/09/25 10:31:03;;;;;;;10.15;6.78;;;;;;;;;;4985510;28;20404;-71
2022/09/25 10:33:30;;;;;;;15.90;4.57;;;;;;;;;;4984706;28;20035;-70
2022/09/25 10:35:57;;;;;;;8.25;5.00;;;;;;;;;;4981013;28;20780;-71
2022/09/25 10:38:32;;;;;;;8.20;4.60;;;;;;;;;;4981874;28;20045;-71
2022/09/25 10:41:04;;;;;;;10.68;6.82;;;;;;;;;;4981382;28;20046;-71
2022/09/25 10:43:30;;;;;;;18.67;10.63;;;;;;;;;;4978928;28;20070;-69
2022/09/25 10:50:09;;;;;;;16.73;11.57;;;;;;;;;;4987650;28;20186;-70
2022/09/25 10:52:04;;;;;;;9.95;4.90;;;;;;;;;;4925569;29;20039;-72
2022/09/25 10:54:30;;;;;;;11.98;5.00;;;;;;;;;;4917943;29;20036;-74
2022/09/25 10:56:57;;;;;;;11.70;6.00;;;;;;;;;;4921087;29;20650;-76
2022/09/25 10:59:23;;;;;;;8.45;5.38;;;;;;;;;;4922807;29;20044;-75
2022/09/25 11:01:50;;;;;;;5.40;3.60;;;;;;;;;;4921452;29;20052;-70
2022/09/25 11:04:30;;;;;;;6.50;2.65;;;;;;;;;;4930218;29;20032;-70
2022/09/25 11:06:59;;;;;;;4.57;2.45;;;;;;;;;;4934131;29;20084;-70
2022/09/25 11:09:26;;;;;;;3.47;2.40;;;;;;;;;;4929698;29;20171;-75
2022/09/25 11:11:54;;;;;;;3.95;2.50;;;;;;;;;;4926368;29;20040;-75
2022/09/25 11:14:31;;;;;;;3.83;2.50;;;;;;;;;;4927871;29;20036;-70
2022/09/25 11:16:58;;;;;;;3.45;2.72;;;;;;;;;;4925858;29;20040;-70
2022/09/25 11:19:29;;;;;;;6.05;3.25;;;;;;;;;;4925116;29;20032;-74
2022/09/25 11:22:01;;;;;;;6.28;2.97;;;;;;;;;;4926986;29;20402;-71
2022/09/25 11:24:47;;;;;;;6.13;3.30;;;;;;;;;;4934903;28;20513;-75
2022/09/25 11:27:22;;;;;;;4.93;3.00;;;;;;;;;;4989905;28;20168;-76
2022/09/25 11:30:00;;;;;;;6.65;4.68;;;;;;;;;;4984937;28;20046;-70
2022/09/25 11:32:26;;;;;;;8.50;5.68;;;;;;;;;;4989636;28;20484;-71
2022/09/25 11:35:24;;;;;;;5.10;3.42;;;;;;;;;;4980843;28;20042;-69
2022/09/25 11:37:50;;;;;;;4.60;3.10;;;;;;;;;;4911496;29;20092;-72
2022/09/25 11:43:04;;;;;;;7.43;3.80;;;;;;;;;;4912270;29;20063;-71
2022/09/25 11:45:48;;;;;;;4.32;3.13;;;;;;;;;;4914873;29;20063;-70
2022/09/25 11:48:20;;;;;;;4.35;3.05;;;;;;;;;;4911526;29;20120;-73
2022/09/25 11:50:46;;;;;;;8.30;4.95;;;;;;;;;;4913347;29;20063;-74
2022/09/25 11:53:23;;;;;;;8.43;5.85;;;;;;;;;;4912742;29;20137;-71
2022/09/25 11:55:51;;;;;;;14.40;8.60;;;;;;;;;;4916794;29;20040;-71
2022/09/25 11:58:29;;;;;;;6.72;3.88;;;;;;;;;;4912853;29;20382;-70
2022/09/25 12:01:04;;;;;;;9.43;5.72;;;;;;;;;;4905002;29;20045;-72
2022/09/25 12:03:36;;;;;;;5.25;3.58;;;;;;;;;;4913709;29;20080;-71
2022/09/25 12:06:04;;;;;;;5.13;4.03;;;;;;;;;;4915675;29;20135;-70
2022/09/25 12:08:40;;;;;;;6.07;3.70;;;;;;;;;;4913617;29;20040;-73
2022/09/25 12:11:12;;;;;;;8.30;3.78;;;;;;;;;;4915649;29;20647;-74
2022/09/25 12:13:48;;;;;;;7.10;3.95;;;;;;;;;;4952629;28;20485;-75
2022/09/25 12:16:22;;;;;;;5.85;3.55;;;;;;;;;;4981210;28;20109;-70
2022/09/25 12:18:55;;;;;;;9.10;4.10;;;;;;;;;;4976788;28;20038;-70
2022/09/25 12:21:46;;;;;;;6.63;4.53;;;;;;;;;;4988331;28;20034;-71
2022/09/25 12:24:32;;;;;;;11.25;7.97;;;;;;;;;;4929357;29;20522;-75
2022/09/25 12:27:09;;;;;;;6.85;4.10;;;;;;;;;;4865165;29;20161;-70
2022/09/25 12:29:38;;;;;;;9.77;4.45;;;;;;;;;;4859623;29;20480;-70
2022/09/25 12:32:04;;;;;;;18.48;13.13;;;;;;;;;;4870042;29;20076;-70
2022/09/25 12:37:20;;;;;;;6.75;4.30;;;;;;;;;;5133140;27;20335;-75
2022/09/25 12:39:52;;;;;;;14.27;8.07;;;;;;;;;;5121578;28;20081;-74
2022/09/25 12:42:18;;;;;;;6.82;4.65;;;;;;;;;;5109297;28;20035;-74
2022/09/25 12:44:49;;;;;;;6.97;4.88;;;;;;;;;;5111969;28;20027;-78
2022/09/25 12:47:26;;;;;;;7.22;4.30;;;;;;;;;;5104328;28;20409;-77
2022/09/25 12:49:58;;;;;;;5.90;3.95;;;;;;;;;;5132409;28;20032;-78
2022/09/25 12:52:27;;;;;;;8.63;5.05;;;;;;;;;;5132304;28;20076;-78
2022/09/25 12:54:53;;;;;;;8.73;4.70;;;;;;;;;;5124894;28;20023;-76
2022/09/25 12:57:22;;;;;;;6.38;4.28;;;;;;;;;;5105414;28;20473;-78
2022/09/25 12:59:48;;;;;;;12.73;4.70;;;;;;;;;;5132105;28;20042;-75
2022/09/25 13:02:23;;;;;;;8.02;4.43;;;;;;;;;;5129553;28;20169;-72
2022/09/25 13:05:09;;;;;;;9.93;5.43;;;;;;;;;;5104190;28;20032;-73
2022/09/25 13:07:44;;;;;;;13.18;6.90;;;;;;;;;;5119004;28;20023;-75
2022/09/25 13:10:31;;;;;;;8.65;5.53;;;;;;;;;;5095008;28;21428;-74
2022/09/25 13:13:02;;;;;;;10.70;5.32;;;;;;;;;;5120857;28;20031;-73
2022/09/25 13:15:30;;;;;;;7.05;4.70;;;;;;;;;;5122626;28;20054;-78
2022/09/25 13:17:58;;;;;;;10.00;4.43;;;;;;;;;;5114516;28;20027;-75
2022/09/25 13:20:30;;;;;;;6.50;4.65;;;;;;;;;;5118081;28;20043;-74
2022/09/25 13:23:02;;;;;;;7.03;4.57;;;;;;;;;;5117601;28;20118;-75
2022/09/25 13:25:29;;;;;;;7.40;4.03;;;;;;;;;;5121846;28;20043;-76
2022/09/25 13:27:56;;;;;;;7.00;4.30;;;;;;;;;;5120694;28;20022;-73
2022/09/25 13:30:24;;;;;;;8.07;4.38;;;;;;;;;;5127106;28;20606;-73
2022/09/25 13:32:52;;;;;;;7.80;4.00;;;;;;;;;;5129951;28;20015;-78
2022/09/25 13:35:19;;;;;;;8.48;4.72;;;;;;;;;;5122749;28;20070;-73
2022/09/25 13:37:46;;;;;;;7.07;4.30;;;;;;;;;;5116578;28;20030;-72
2022/09/25 13:43:21;;;;;;;22.15;14.35;;;;;;;;;;5095475;28;20158;-72
2022/09/25 13:45:49;;;;;;;11.77;6.15;;;;;;;;;;5092484;28;20028;-76
2022/09/25 13:48:33;;;;;;;7.13;4.00;;;;;;;;;;5098535;28;20032;-76
2022/09/25 13:51:17;;;;;;;7.32;4.15;;;;;;;;;;5097234;28;20089;-76
2022/09/25 13:54:01;;;;;;;5.93;3.80;;;;;;;;;;5101255;28;20381;-72
2022/09/25 13:56:27;;;;;;;;;;;;;;;;;;5097996;28;20032;-76
2022/09/25 13:58:59;;;;;;;8.93;4.65;;;;;;;;;;5097920;28;19919;-76
2022/09/25 14:01:45;;;;;;;6.45;4.47;;;;;;;;;;5096220;28;20028;-73
2022/09/25 14:04:14;;;;;;;7.75;4.55;;;;;;;;;;5097012;28;20046;-73
2022/09/25 14:06:44;;;;;;;8.73;4.60;;;;;;;;;;5096996;28;20114;-73
2022/09/25 14:09:12;;;;;;;7.60;4.65;;;;;;;;;;5092520;28;20040;-74
2022/09/25 14:11:40;;;;;;;8.43;4.50;;;;;;;;;;5093962;28;20024;-72
2022/09/25 14:14:08;;;;;;;8.57;4.90;;;;;;;;;;5093474;28;20024;-77
2022/09/25 14:16:40;;;;;;;10.13;5.00;;;;;;;;;;5085411;28;20516;-76
2022/09/25 14:19:07;;;;;;;10.15;5.10;;;;;;;;;;5082501;28;20447;-78
2022/09/25 14:21:33;;;;;;;12.73;5.07;;;;;;;;;;5089061;28;20020;-77
2022/09/25 14:24:20;;;;;;;8.32;4.70;;;;;;;;;;5092232;28;20077;-77
2022/09/25 14:26:46;;;;;;;8.88;4.88;;;;;;;;;;5089352;28;20097;-77
2022/09/25 14:29:17;;;;;;;7.70;4.85;;;;;;;;;;5093858;28;20038;-77
2022/09/25 14:31:49;;;;;;;10.00;4.95;;;;;;;;;;5092970;28;20036;-76
2022/09/25 14:34:15;;;;;;;11.43;5.27;;;;;;;;;;5098273;28;20016;-77
2022/09/25 14:36:52;;;;;;;9.63;4.57;;;;;;;;;;5093379;28;20151;-78
2022/09/25 14:39:28;;;;;;;9.43;4.38;;;;;;;;;;5092495;28;20474;-75
2022/09/25 14:42:01;;;;;;;8.13;3.92;;;;;;;;;;5094060;28;20020;-78
2022/09/25 14:44:30;;;;;;;7.18;4.40;;;;;;;;;;5096973;28;20027;-73
2022/09/25 14:46:57;;;;;;;7.40;4.13;;;;;;;;;;5099342;28;20031;-77
2022/09/25 14:49:23;;;;;;;6.28;4.38;;;;;;;;;;5111984;28;20027;-74
2022/09/25 14:51:50;;;;;;;10.57;4.20;;;;;;;;;;5093881;28;20063;-77
2022/09/25 14:54:21;;;;;;;7.53;4.45;;;;;;;;;;5102140;28;20028;-76
2022/09/25 14:56:49;;;;;;;9.85;5.30;;;;;;;;;;5113345;28;20042;-79
2022/09/25 14:59:30;;;;;;;10.35;4.20;;;;;;;;;;5104278;28;20077;-77
2022/09/25 15:01:58;;;;;;;11.52;4.72;;;;;;;;;;5105793;28;20027;-75
2022/09/25 15:04:32;;;;;;;7.35;4.57;;;;;;;;;;5091166;28;20036;-77
2022/09/25 15:06:59;;;;;;;24.23;6.50;;;;;;;;;;5076912;28;20071;-77
2022/09/25 15:09:28;;;;;;;9.40;4.82;;;;;;;;;;5086804;28;20469;-76
2022/09/25 15:11:54;;;;;;;9.80;4.57;;;;;;;;;;5085239;28;20024;-76
2022/09/25 15:14:21;;;;;;;15.90;7.53;;;;;;;;;;5094166;28;20024;-75
2022/09/25 15:19:34;;;;;;;10.93;5.90;;;;;;;;;;5086484;28;20098;-78
2022/09/25 15:22:00;;;;;;;14.95;6.50;;;;;;;;;;5094784;28;20034;-75